sensor_id;sensor_type;location;lat;lon;timestamp;P1;durP1;ratioP1;P2;durP2;ratioP2
5742;SDS011;2896;53.500;10.020;2024-01-30T00:00:59;15.97;;;11.87;;
5742;SDS011;2896;53.500;10.020;2024-01-30T00:03:26;12.30;;;9.50;;
5742;SDS011;2896;53.500;10.020;2024-01-30T00:05:54;11.17;;;9.37;;
5742;SDS011;2896;53.500;10.020;2024-01-30T00:08:22;11.67;;;10.20;;
5742;SDS011;2896;53.500;10.020;2024-01-30T00:10:49;14.60;;;11.00;;
5742;SDS011;2896;53.500;10.020;2024-01-30T00:13:16;13.00;;;10.37;;
5742;SDS011;2896;53.500;10.020;2024-01-30T00:15:44;14.90;;;10.57;;
5742;SDS011;2896;53.500;10.020;2024-01-30T00:18:11;11.90;;;9.80;;
5742;SDS011;2896;53.500;10.020;2024-01-30T00:20:38;12.37;;;10.13;;
5742;SDS011;2896;53.500;10.020;2024-01-30T00:23:05;15.30;;;9.40;;
5742;SDS011;2896;53.500;10.020;2024-01-30T00:25:34;14.30;;;10.00;;
5742;SDS011;2896;53.500;10.020;2024-01-30T00:28:00;12.10;;;9.07;;
5742;SDS011;2896;53.500;10.020;2024-01-30T00:30:27;11.83;;;9.03;;
5742;SDS011;2896;53.500;10.020;2024-01-30T00:32:54;13.20;;;10.03;;
5742;SDS011;2896;53.500;10.020;2024-01-30T00:35:21;12.37;;;9.40;;
5742;SDS011;2896;53.500;10.020;2024-01-30T00:37:48;11.67;;;10.43;;
5742;SDS011;2896;53.500;10.020;2024-01-30T00:40:15;12.80;;;10.17;;
5742;SDS011;2896;53.500;10.020;2024-01-30T00:42:44;14.40;;;11.13;;
5742;SDS011;2896;53.500;10.020;2024-01-30T00:45:13;17.43;;;10.90;;
5742;SDS011;2896;53.500;10.020;2024-01-30T00:47:41;11.97;;;9.70;;
5742;SDS011;2896;53.500;10.020;2024-01-30T00:50:08;12.90;;;9.50;;
5742;SDS011;2896;53.500;10.020;2024-01-30T00:52:35;12.57;;;10.23;;
5742;SDS011;2896;53.500;10.020;2024-01-30T00:55:04;13.57;;;9.80;;
5742;SDS011;2896;53.500;10.020;2024-01-30T00:57:31;12.87;;;9.70;;
5742;SDS011;2896;53.500;10.020;2024-01-30T00:59:59;11.20;;;8.87;;
5742;SDS011;2896;53.500;10.020;2024-01-30T01:02:26;12.90;;;9.83;;
5742;SDS011;2896;53.500;10.020;2024-01-30T01:04:53;12.47;;;10.03;;
5742;SDS011;2896;53.500;10.020;2024-01-30T01:07:20;12.20;;;10.20;;
5742;SDS011;2896;53.500;10.020;2024-01-30T01:09:47;14.87;;;10.50;;
5742;SDS011;2896;53.500;10.020;2024-01-30T01:12:14;15.00;;;10.90;;
5742;SDS011;2896;53.500;10.020;2024-01-30T01:14:41;10.87;;;9.10;;
5742;SDS011;2896;53.500;10.020;2024-01-30T01:17:09;14.60;;;10.60;;
5742;SDS011;2896;53.500;10.020;2024-01-30T01:19:36;12.83;;;10.03;;
5742;SDS011;2896;53.500;10.020;2024-01-30T01:22:03;19.07;;;10.37;;
5742;SDS011;2896;53.500;10.020;2024-01-30T01:24:30;12.30;;;9.70;;
5742;SDS011;2896;53.500;10.020;2024-01-30T01:26:57;13.50;;;9.77;;
5742;SDS011;2896;53.500;10.020;2024-01-30T01:29:24;13.63;;;8.63;;
5742;SDS011;2896;53.500;10.020;2024-01-30T01:31:53;16.83;;;10.77;;
5742;SDS011;2896;53.500;10.020;2024-01-30T01:34:22;13.60;;;9.80;;
5742;SDS011;2896;53.500;10.020;2024-01-30T01:36:49;15.47;;;9.03;;
5742;SDS011;2896;53.500;10.020;2024-01-30T01:39:16;10.07;;;8.80;;
5742;SDS011;2896;53.500;10.020;2024-01-30T01:41:43;12.47;;;8.90;;
5742;SDS011;2896;53.500;10.020;2024-01-30T01:44:10;9.77;;;8.50;;
5742;SDS011;2896;53.500;10.020;2024-01-30T01:46:37;10.20;;;9.17;;
5742;SDS011;2896;53.500;10.020;2024-01-30T01:49:04;14.60;;;9.73;;
5742;SDS011;2896;53.500;10.020;2024-01-30T01:51:33;17.97;;;9.73;;
5742;SDS011;2896;53.500;10.020;2024-01-30T01:54:01;12.60;;;9.90;;
5742;SDS011;2896;53.500;10.020;2024-01-30T01:56:30;12.53;;;9.33;;
5742;SDS011;2896;53.500;10.020;2024-01-30T01:58:58;11.93;;;9.20;;
5742;SDS011;2896;53.500;10.020;2024-01-30T02:01:26;10.53;;;9.30;;
5742;SDS011;2896;53.500;10.020;2024-01-30T02:03:55;10.10;;;8.00;;
5742;SDS011;2896;53.500;10.020;2024-01-30T02:06:22;10.83;;;9.33;;
5742;SDS011;2896;53.500;10.020;2024-01-30T02:08:50;9.63;;;8.30;;
5742;SDS011;2896;53.500;10.020;2024-01-30T02:11:17;15.50;;;9.83;;
5742;SDS011;2896;53.500;10.020;2024-01-30T02:13:44;11.20;;;8.93;;
5742;SDS011;2896;53.500;10.020;2024-01-30T02:16:11;13.63;;;10.17;;
5742;SDS011;2896;53.500;10.020;2024-01-30T02:18:38;15.00;;;9.43;;
5742;SDS011;2896;53.500;10.020;2024-01-30T02:21:09;17.83;;;10.80;;
5742;SDS011;2896;53.500;10.020;2024-01-30T02:23:36;11.50;;;10.23;;
5742;SDS011;2896;53.500;10.020;2024-01-30T02:26:03;13.10;;;9.80;;
5742;SDS011;2896;53.500;10.020;2024-01-30T02:28:30;13.77;;;9.83;;
5742;SDS011;2896;53.500;10.020;2024-01-30T02:30:57;10.60;;;8.60;;
5742;SDS011;2896;53.500;10.020;2024-01-30T02:33:24;11.30;;;9.73;;
5742;SDS011;2896;53.500;10.020;2024-01-30T02:35:51;11.43;;;9.40;;
5742;SDS011;2896;53.500;10.020;2024-01-30T02:38:19;11.87;;;8.90;;
5742;SDS011;2896;53.500;10.020;2024-01-30T02:40:46;11.90;;;9.23;;
5742;SDS011;2896;53.500;10.020;2024-01-30T02:43:13;15.40;;;10.40;;
5742;SDS011;2896;53.500;10.020;2024-01-30T02:45:40;16.23;;;11.27;;
5742;SDS011;2896;53.500;10.020;2024-01-30T02:48:07;17.00;;;11.30;;
5742;SDS011;2896;53.500;10.020;2024-01-30T02:50:34;11.53;;;9.73;;
5742;SDS011;2896;53.500;10.020;2024-01-30T02:53:01;13.83;;;11.23;;
5742;SDS011;2896;53.500;10.020;2024-01-30T02:55:29;17.90;;;11.37;;
5742;SDS011;2896;53.500;10.020;2024-01-30T02:57:56;13.50;;;11.23;;
5742;SDS011;2896;53.500;10.020;2024-01-30T03:00:23;16.03;;;11.37;;
5742;SDS011;2896;53.500;10.020;2024-01-30T03:02:50;14.60;;;11.07;;
5742;SDS011;2896;53.500;10.020;2024-01-30T03:05:17;13.10;;;10.03;;
5742;SDS011;2896;53.500;10.020;2024-01-30T03:07:44;16.10;;;10.50;;
5742;SDS011;2896;53.500;10.020;2024-01-30T03:10:11;12.70;;;10.40;;
5742;SDS011;2896;53.500;10.020;2024-01-30T03:12:39;14.20;;;10.40;;
5742;SDS011;2896;53.500;10.020;2024-01-30T03:15:06;14.60;;;10.60;;
5742;SDS011;2896;53.500;10.020;2024-01-30T03:17:34;13.00;;;10.80;;
5742;SDS011;2896;53.500;10.020;2024-01-30T03:20:02;12.97;;;9.47;;
5742;SDS011;2896;53.500;10.020;2024-01-30T03:22:31;14.47;;;10.20;;
5742;SDS011;2896;53.500;10.020;2024-01-30T03:24:58;10.37;;;9.27;;
5742;SDS011;2896;53.500;10.020;2024-01-30T03:27:24;18.90;;;12.40;;
5742;SDS011;2896;53.500;10.020;2024-01-30T03:29:53;17.23;;;11.07;;
5742;SDS011;2896;53.500;10.020;2024-01-30T03:32:20;15.20;;;11.87;;
5742;SDS011;2896;53.500;10.020;2024-01-30T03:34:47;11.13;;;8.60;;
5742;SDS011;2896;53.500;10.020;2024-01-30T03:37:14;12.93;;;10.00;;
5742;SDS011;2896;53.500;10.020;2024-01-30T03:39:41;13.87;;;10.13;;
5742;SDS011;2896;53.500;10.020;2024-01-30T03:42:08;17.60;;;11.47;;
5742;SDS011;2896;53.500;10.020;2024-01-30T03:44:34;19.70;;;10.87;;
5742;SDS011;2896;53.500;10.020;2024-01-30T03:47:03;16.23;;;11.90;;
5742;SDS011;2896;53.500;10.020;2024-01-30T03:49:29;22.00;;;13.03;;
5742;SDS011;2896;53.500;10.020;2024-01-30T03:51:56;16.87;;;12.10;;
5742;SDS011;2896;53.500;10.020;2024-01-30T03:54:23;14.03;;;11.53;;
5742;SDS011;2896;53.500;10.020;2024-01-30T03:56:50;21.20;;;12.07;;
5742;SDS011;2896;53.500;10.020;2024-01-30T03:59:17;16.90;;;11.00;;
5742;SDS011;2896;53.500;10.020;2024-01-30T04:01:49;14.63;;;11.93;;
5742;SDS011;2896;53.500;10.020;2024-01-30T04:04:17;18.70;;;13.30;;
5742;SDS011;2896;53.500;10.020;2024-01-30T04:06:44;17.30;;;13.50;;
5742;SDS011;2896;53.500;10.020;2024-01-30T04:09:11;17.37;;;13.20;;
5742;SDS011;2896;53.500;10.020;2024-01-30T04:11:39;14.60;;;11.80;;
5742;SDS011;2896;53.500;10.020;2024-01-30T04:14:06;18.83;;;13.33;;
5742;SDS011;2896;53.500;10.020;2024-01-30T04:16:33;15.70;;;12.07;;
5742;SDS011;2896;53.500;10.020;2024-01-30T04:19:01;18.50;;;12.50;;
5742;SDS011;2896;53.500;10.020;2024-01-30T04:21:29;25.97;;;14.83;;
5742;SDS011;2896;53.500;10.020;2024-01-30T04:23:55;18.40;;;12.40;;
5742;SDS011;2896;53.500;10.020;2024-01-30T04:26:22;20.80;;;12.83;;
5742;SDS011;2896;53.500;10.020;2024-01-30T04:28:49;27.60;;;15.83;;
5742;SDS011;2896;53.500;10.020;2024-01-30T04:31:16;15.97;;;12.93;;
5742;SDS011;2896;53.500;10.020;2024-01-30T04:33:43;16.20;;;12.53;;
5742;SDS011;2896;53.500;10.020;2024-01-30T04:36:10;14.60;;;11.50;;
5742;SDS011;2896;53.500;10.020;2024-01-30T04:38:38;23.03;;;14.00;;
5742;SDS011;2896;53.500;10.020;2024-01-30T04:41:05;19.33;;;12.70;;
5742;SDS011;2896;53.500;10.020;2024-01-30T04:43:32;20.87;;;13.27;;
5742;SDS011;2896;53.500;10.020;2024-01-30T04:45:59;21.47;;;13.50;;
5742;SDS011;2896;53.500;10.020;2024-01-30T04:48:26;18.93;;;12.60;;
5742;SDS011;2896;53.500;10.020;2024-01-30T04:50:53;18.47;;;13.80;;
5742;SDS011;2896;53.500;10.020;2024-01-30T04:53:21;18.67;;;13.90;;
5742;SDS011;2896;53.500;10.020;2024-01-30T04:55:49;21.03;;;13.40;;
5742;SDS011;2896;53.500;10.020;2024-01-30T04:58:16;20.03;;;13.30;;
5742;SDS011;2896;53.500;10.020;2024-01-30T05:00:43;18.70;;;13.20;;
5742;SDS011;2896;53.500;10.020;2024-01-30T05:03:11;25.70;;;15.20;;
5742;SDS011;2896;53.500;10.020;2024-01-30T05:05:38;17.30;;;13.10;;
5742;SDS011;2896;53.500;10.020;2024-01-30T05:08:05;21.97;;;14.17;;
5742;SDS011;2896;53.500;10.020;2024-01-30T05:10:32;20.23;;;14.00;;
5742;SDS011;2896;53.500;10.020;2024-01-30T05:13:00;22.43;;;15.43;;
5742;SDS011;2896;53.500;10.020;2024-01-30T05:15:26;16.47;;;13.80;;
5742;SDS011;2896;53.500;10.020;2024-01-30T05:17:53;19.30;;;14.00;;
5742;SDS011;2896;53.500;10.020;2024-01-30T05:20:21;20.00;;;14.90;;
5742;SDS011;2896;53.500;10.020;2024-01-30T05:22:48;23.80;;;15.80;;
5742;SDS011;2896;53.500;10.020;2024-01-30T05:25:14;25.87;;;14.73;;
5742;SDS011;2896;53.500;10.020;2024-01-30T05:27:41;22.10;;;14.90;;
5742;SDS011;2896;53.500;10.020;2024-01-30T05:30:10;19.30;;;14.27;;
5742;SDS011;2896;53.500;10.020;2024-01-30T05:32:37;21.63;;;14.60;;
5742;SDS011;2896;53.500;10.020;2024-01-30T05:35:04;20.97;;;14.30;;
5742;SDS011;2896;53.500;10.020;2024-01-30T05:37:32;19.50;;;13.27;;
5742;SDS011;2896;53.500;10.020;2024-01-30T05:39:59;21.23;;;14.90;;
5742;SDS011;2896;53.500;10.020;2024-01-30T05:42:26;23.07;;;14.20;;
5742;SDS011;2896;53.500;10.020;2024-01-30T05:44:53;26.03;;;15.13;;
5742;SDS011;2896;53.500;10.020;2024-01-30T05:47:21;23.23;;;14.33;;
5742;SDS011;2896;53.500;10.020;2024-01-30T05:49:48;21.13;;;13.80;;
5742;SDS011;2896;53.500;10.020;2024-01-30T05:52:15;17.23;;;13.47;;
5742;SDS011;2896;53.500;10.020;2024-01-30T05:54:42;19.40;;;13.87;;
5742;SDS011;2896;53.500;10.020;2024-01-30T05:57:09;25.90;;;14.90;;
5742;SDS011;2896;53.500;10.020;2024-01-30T05:59:36;23.13;;;14.47;;
5742;SDS011;2896;53.500;10.020;2024-01-30T06:02:03;28.10;;;17.17;;
5742;SDS011;2896;53.500;10.020;2024-01-30T06:04:31;24.20;;;14.97;;
5742;SDS011;2896;53.500;10.020;2024-01-30T06:06:57;26.47;;;16.20;;
5742;SDS011;2896;53.500;10.020;2024-01-30T06:09:26;22.90;;;15.30;;
5742;SDS011;2896;53.500;10.020;2024-01-30T06:11:53;23.23;;;16.03;;
5742;SDS011;2896;53.500;10.020;2024-01-30T06:14:20;22.10;;;15.30;;
5742;SDS011;2896;53.500;10.020;2024-01-30T06:16:48;27.43;;;17.57;;
5742;SDS011;2896;53.500;10.020;2024-01-30T06:19:15;31.83;;;15.93;;
5742;SDS011;2896;53.500;10.020;2024-01-30T06:21:44;26.77;;;15.40;;
5742;SDS011;2896;53.500;10.020;2024-01-30T06:24:10;22.53;;;16.03;;
5742;SDS011;2896;53.500;10.020;2024-01-30T06:26:37;30.83;;;15.50;;
5742;SDS011;2896;53.500;10.020;2024-01-30T06:29:04;21.40;;;15.13;;
5742;SDS011;2896;53.500;10.020;2024-01-30T06:31:32;24.30;;;15.27;;
5742;SDS011;2896;53.500;10.020;2024-01-30T06:33:59;27.03;;;17.27;;
5742;SDS011;2896;53.500;10.020;2024-01-30T06:36:26;27.33;;;18.40;;
5742;SDS011;2896;53.500;10.020;2024-01-30T06:38:54;31.10;;;20.03;;
5742;SDS011;2896;53.500;10.020;2024-01-30T06:41:21;26.93;;;17.30;;
5742;SDS011;2896;53.500;10.020;2024-01-30T06:43:48;32.80;;;19.30;;
5742;SDS011;2896;53.500;10.020;2024-01-30T06:46:14;30.37;;;18.63;;
5742;SDS011;2896;53.500;10.020;2024-01-30T06:48:42;32.70;;;20.10;;
5742;SDS011;2896;53.500;10.020;2024-01-30T06:51:09;28.23;;;19.00;;
5742;SDS011;2896;53.500;10.020;2024-01-30T06:53:36;29.80;;;16.57;;
5742;SDS011;2896;53.500;10.020;2024-01-30T06:56:05;26.73;;;17.67;;
5742;SDS011;2896;53.500;10.020;2024-01-30T06:58:32;33.43;;;19.97;;
5742;SDS011;2896;53.500;10.020;2024-01-30T07:00:58;25.53;;;17.97;;
5742;SDS011;2896;53.500;10.020;2024-01-30T07:03:25;24.20;;;17.40;;
5742;SDS011;2896;53.500;10.020;2024-01-30T07:05:52;29.63;;;17.10;;
5742;SDS011;2896;53.500;10.020;2024-01-30T07:08:18;23.83;;;15.63;;
5742;SDS011;2896;53.500;10.020;2024-01-30T07:10:45;31.03;;;17.50;;
5742;SDS011;2896;53.500;10.020;2024-01-30T07:13:14;27.37;;;19.10;;
5742;SDS011;2896;53.500;10.020;2024-01-30T07:15:41;28.07;;;19.27;;
5742;SDS011;2896;53.500;10.020;2024-01-30T07:18:08;29.73;;;19.50;;
5742;SDS011;2896;53.500;10.020;2024-01-30T07:20:35;31.90;;;19.30;;
5742;SDS011;2896;53.500;10.020;2024-01-30T07:23:02;37.27;;;22.50;;
5742;SDS011;2896;53.500;10.020;2024-01-30T07:25:29;34.00;;;20.87;;
5742;SDS011;2896;53.500;10.020;2024-01-30T07:27:56;33.83;;;20.70;;
5742;SDS011;2896;53.500;10.020;2024-01-30T07:30:24;28.03;;;20.70;;
5742;SDS011;2896;53.500;10.020;2024-01-30T07:32:51;27.40;;;18.40;;
5742;SDS011;2896;53.500;10.020;2024-01-30T07:35:17;27.93;;;18.37;;
5742;SDS011;2896;53.500;10.020;2024-01-30T07:37:44;27.00;;;18.10;;
5742;SDS011;2896;53.500;10.020;2024-01-30T07:40:11;24.80;;;16.80;;
5742;SDS011;2896;53.500;10.020;2024-01-30T07:42:38;31.47;;;19.43;;
5742;SDS011;2896;53.500;10.020;2024-01-30T07:45:05;52.40;;;20.90;;
5742;SDS011;2896;53.500;10.020;2024-01-30T07:47:34;33.70;;;20.23;;
5742;SDS011;2896;53.500;10.020;2024-01-30T07:50:00;31.60;;;19.87;;
5742;SDS011;2896;53.500;10.020;2024-01-30T07:52:27;33.73;;;19.90;;
5742;SDS011;2896;53.500;10.020;2024-01-30T07:54:54;31.47;;;19.27;;
5742;SDS011;2896;53.500;10.020;2024-01-30T07:57:21;36.83;;;22.07;;
5742;SDS011;2896;53.500;10.020;2024-01-30T07:59:48;31.80;;;21.07;;
5742;SDS011;2896;53.500;10.020;2024-01-30T08:02:14;33.57;;;21.87;;
5742;SDS011;2896;53.500;10.020;2024-01-30T08:04:42;36.30;;;21.60;;
5742;SDS011;2896;53.500;10.020;2024-01-30T08:07:13;41.93;;;25.60;;
5742;SDS011;2896;53.500;10.020;2024-01-30T08:09:40;35.03;;;23.37;;
5742;SDS011;2896;53.500;10.020;2024-01-30T08:12:06;39.67;;;22.47;;
5742;SDS011;2896;53.500;10.020;2024-01-30T08:14:33;42.37;;;23.57;;
5742;SDS011;2896;53.500;10.020;2024-01-30T08:17:00;45.00;;;24.80;;
5742;SDS011;2896;53.500;10.020;2024-01-30T08:19:27;40.97;;;23.90;;
5742;SDS011;2896;53.500;10.020;2024-01-30T08:21:55;39.90;;;24.23;;
5742;SDS011;2896;53.500;10.020;2024-01-30T08:24:22;35.33;;;21.80;;
5742;SDS011;2896;53.500;10.020;2024-01-30T08:26:48;36.13;;;23.47;;
5742;SDS011;2896;53.500;10.020;2024-01-30T08:29:15;36.27;;;21.77;;
5742;SDS011;2896;53.500;10.020;2024-01-30T08:31:42;49.03;;;25.07;;
5742;SDS011;2896;53.500;10.020;2024-01-30T08:34:09;36.80;;;23.53;;
5742;SDS011;2896;53.500;10.020;2024-01-30T08:36:35;39.90;;;22.97;;
5742;SDS011;2896;53.500;10.020;2024-01-30T08:39:03;30.33;;;20.33;;
5742;SDS011;2896;53.500;10.020;2024-01-30T08:41:30;41.90;;;23.67;;
5742;SDS011;2896;53.500;10.020;2024-01-30T08:43:57;42.90;;;22.17;;
5742;SDS011;2896;53.500;10.020;2024-01-30T08:46:24;42.27;;;25.40;;
5742;SDS011;2896;53.500;10.020;2024-01-30T08:48:51;42.70;;;26.43;;
5742;SDS011;2896;53.500;10.020;2024-01-30T08:51:18;41.87;;;24.43;;
5742;SDS011;2896;53.500;10.020;2024-01-30T08:53:44;42.73;;;26.17;;
5742;SDS011;2896;53.500;10.020;2024-01-30T08:56:12;41.20;;;25.27;;
5742;SDS011;2896;53.500;10.020;2024-01-30T08:58:41;48.30;;;26.80;;
5742;SDS011;2896;53.500;10.020;2024-01-30T09:01:07;42.90;;;27.20;;
5742;SDS011;2896;53.500;10.020;2024-01-30T09:03:34;40.73;;;25.80;;
5742;SDS011;2896;53.500;10.020;2024-01-30T09:06:01;44.33;;;28.70;;
5742;SDS011;2896;53.500;10.020;2024-01-30T09:08:29;52.73;;;28.10;;
5742;SDS011;2896;53.500;10.020;2024-01-30T09:10:55;49.97;;;28.43;;
5742;SDS011;2896;53.500;10.020;2024-01-30T09:13:24;48.20;;;29.10;;
5742;SDS011;2896;53.500;10.020;2024-01-30T09:15:50;55.60;;;30.33;;
5742;SDS011;2896;53.500;10.020;2024-01-30T09:18:18;51.83;;;30.57;;
5742;SDS011;2896;53.500;10.020;2024-01-30T09:20:44;48.10;;;28.37;;
5742;SDS011;2896;53.500;10.020;2024-01-30T09:23:12;49.37;;;27.67;;
5742;SDS011;2896;53.500;10.020;2024-01-30T09:25:39;48.63;;;30.57;;
5742;SDS011;2896;53.500;10.020;2024-01-30T09:28:06;45.27;;;28.20;;
5742;SDS011;2896;53.500;10.020;2024-01-30T09:30:34;42.67;;;25.70;;
5742;SDS011;2896;53.500;10.020;2024-01-30T09:33:00;44.10;;;26.10;;
5742;SDS011;2896;53.500;10.020;2024-01-30T09:35:27;52.73;;;28.53;;
5742;SDS011;2896;53.500;10.020;2024-01-30T09:37:54;48.23;;;25.70;;
5742;SDS011;2896;53.500;10.020;2024-01-30T09:40:22;42.33;;;25.67;;
5742;SDS011;2896;53.500;10.020;2024-01-30T09:42:50;42.70;;;26.53;;
5742;SDS011;2896;53.500;10.020;2024-01-30T09:45:17;39.67;;;24.60;;
5742;SDS011;2896;53.500;10.020;2024-01-30T09:47:46;38.67;;;24.60;;
5742;SDS011;2896;53.500;10.020;2024-01-30T09:50:13;39.70;;;24.17;;
5742;SDS011;2896;53.500;10.020;2024-01-30T09:52:40;39.20;;;24.33;;
5742;SDS011;2896;53.500;10.020;2024-01-30T09:55:09;42.83;;;26.47;;
5742;SDS011;2896;53.500;10.020;2024-01-30T09:57:36;40.83;;;26.63;;
5742;SDS011;2896;53.500;10.020;2024-01-30T10:00:03;34.30;;;24.03;;
5742;SDS011;2896;53.500;10.020;2024-01-30T10:02:32;37.60;;;25.03;;
5742;SDS011;2896;53.500;10.020;2024-01-30T10:05:00;42.13;;;24.63;;
5742;SDS011;2896;53.500;10.020;2024-01-30T10:07:28;43.00;;;24.50;;
5742;SDS011;2896;53.500;10.020;2024-01-30T10:09:55;41.73;;;23.63;;
5742;SDS011;2896;53.500;10.020;2024-01-30T10:12:22;34.27;;;23.00;;
5742;SDS011;2896;53.500;10.020;2024-01-30T10:14:49;40.53;;;24.57;;
5742;SDS011;2896;53.500;10.020;2024-01-30T10:17:15;35.90;;;24.47;;
5742;SDS011;2896;53.500;10.020;2024-01-30T10:19:42;40.87;;;25.47;;
5742;SDS011;2896;53.500;10.020;2024-01-30T10:22:11;31.13;;;20.90;;
5742;SDS011;2896;53.500;10.020;2024-01-30T10:24:37;41.03;;;22.50;;
5742;SDS011;2896;53.500;10.020;2024-01-30T10:27:05;31.63;;;21.27;;
5742;SDS011;2896;53.500;10.020;2024-01-30T10:29:32;25.93;;;19.10;;
5742;SDS011;2896;53.500;10.020;2024-01-30T10:31:59;32.80;;;20.10;;
5742;SDS011;2896;53.500;10.020;2024-01-30T10:34:26;40.23;;;19.60;;
5742;SDS011;2896;53.500;10.020;2024-01-30T10:36:58;30.30;;;19.30;;
5742;SDS011;2896;53.500;10.020;2024-01-30T10:39:32;23.23;;;17.33;;
5742;SDS011;2896;53.500;10.020;2024-01-30T10:42:04;28.27;;;18.07;;
5742;SDS011;2896;53.500;10.020;2024-01-30T10:44:34;25.03;;;17.57;;
5742;SDS011;2896;53.500;10.020;2024-01-30T10:47:06;28.33;;;17.63;;
5742;SDS011;2896;53.500;10.020;2024-01-30T10:49:34;25.40;;;17.67;;
5742;SDS011;2896;53.500;10.020;2024-01-30T10:52:01;21.60;;;17.07;;
5742;SDS011;2896;53.500;10.020;2024-01-30T10:54:29;25.03;;;16.73;;
5742;SDS011;2896;53.500;10.020;2024-01-30T10:56:58;26.80;;;17.67;;
5742;SDS011;2896;53.500;10.020;2024-01-30T10:59:27;26.33;;;16.83;;
5742;SDS011;2896;53.500;10.020;2024-01-30T11:01:55;30.37;;;17.83;;
5742;SDS011;2896;53.500;10.020;2024-01-30T11:04:23;23.63;;;16.33;;
5742;SDS011;2896;53.500;10.020;2024-01-30T11:06:50;38.13;;;18.40;;
5742;SDS011;2896;53.500;10.020;2024-01-30T11:09:17;20.83;;;16.13;;
5742;SDS011;2896;53.500;10.020;2024-01-30T11:11:48;22.73;;;16.27;;
5742;SDS011;2896;53.500;10.020;2024-01-30T11:14:17;23.60;;;15.73;;
5742;SDS011;2896;53.500;10.020;2024-01-30T11:16:49;25.30;;;15.23;;
5742;SDS011;2896;53.500;10.020;2024-01-30T11:19:21;21.50;;;14.83;;
5742;SDS011;2896;53.500;10.020;2024-01-30T11:21:50;29.80;;;16.80;;
5742;SDS011;2896;53.500;10.020;2024-01-30T11:24:18;26.07;;;15.73;;
5742;SDS011;2896;53.500;10.020;2024-01-30T11:26:46;26.07;;;15.97;;
5742;SDS011;2896;53.500;10.020;2024-01-30T11:29:14;23.37;;;14.83;;
5742;SDS011;2896;53.500;10.020;2024-01-30T11:31:51;21.00;;;15.60;;
5742;SDS011;2896;53.500;10.020;2024-01-30T11:34:18;27.97;;;17.70;;
5742;SDS011;2896;53.500;10.020;2024-01-30T11:36:45;22.60;;;15.77;;
5742;SDS011;2896;53.500;10.020;2024-01-30T11:39:20;20.77;;;15.07;;
5742;SDS011;2896;53.500;10.020;2024-01-30T11:41:47;18.37;;;14.83;;
5742;SDS011;2896;53.500;10.020;2024-01-30T11:44:17;21.90;;;14.80;;
5742;SDS011;2896;53.500;10.020;2024-01-30T11:46:45;16.80;;;13.73;;
5742;SDS011;2896;53.500;10.020;2024-01-30T11:49:12;23.30;;;14.63;;
5742;SDS011;2896;53.500;10.020;2024-01-30T11:51:38;25.37;;;15.20;;
5742;SDS011;2896;53.500;10.020;2024-01-30T11:54:05;15.60;;;12.60;;
5742;SDS011;2896;53.500;10.020;2024-01-30T11:56:33;19.83;;;13.17;;
5742;SDS011;2896;53.500;10.020;2024-01-30T11:59:00;22.10;;;14.87;;
5742;SDS011;2896;53.500;10.020;2024-01-30T12:01:28;20.97;;;14.20;;
5742;SDS011;2896;53.500;10.020;2024-01-30T12:03:56;16.50;;;12.73;;
5742;SDS011;2896;53.500;10.020;2024-01-30T12:06:23;25.30;;;14.07;;
5742;SDS011;2896;53.500;10.020;2024-01-30T12:08:56;17.53;;;11.93;;
5742;SDS011;2896;53.500;10.020;2024-01-30T12:11:24;15.00;;;11.73;;
5742;SDS011;2896;53.500;10.020;2024-01-30T12:13:50;19.77;;;13.23;;
5742;SDS011;2896;53.500;10.020;2024-01-30T12:16:18;13.40;;;11.30;;
5742;SDS011;2896;53.500;10.020;2024-01-30T12:18:46;17.23;;;12.40;;
5742;SDS011;2896;53.500;10.020;2024-01-30T12:21:15;17.57;;;11.57;;
5742;SDS011;2896;53.500;10.020;2024-01-30T12:23:42;16.90;;;12.80;;
5742;SDS011;2896;53.500;10.020;2024-01-30T12:26:09;15.47;;;12.50;;
5742;SDS011;2896;53.500;10.020;2024-01-30T12:28:36;19.10;;;12.20;;
5742;SDS011;2896;53.500;10.020;2024-01-30T12:31:13;16.40;;;13.27;;
5742;SDS011;2896;53.500;10.020;2024-01-30T12:33:39;20.87;;;13.67;;
5742;SDS011;2896;53.500;10.020;2024-01-30T12:36:07;23.30;;;13.93;;
5742;SDS011;2896;53.500;10.020;2024-01-30T12:38:34;20.83;;;13.67;;
5742;SDS011;2896;53.500;10.020;2024-01-30T12:41:01;19.47;;;14.00;;
5742;SDS011;2896;53.500;10.020;2024-01-30T12:43:27;20.07;;;12.90;;
5742;SDS011;2896;53.500;10.020;2024-01-30T12:45:55;17.60;;;13.03;;
5742;SDS011;2896;53.500;10.020;2024-01-30T12:48:22;18.77;;;12.57;;
5742;SDS011;2896;53.500;10.020;2024-01-30T12:50:48;13.97;;;10.40;;
5742;SDS011;2896;53.500;10.020;2024-01-30T12:53:16;15.17;;;11.00;;
5742;SDS011;2896;53.500;10.020;2024-01-30T12:55:43;20.33;;;11.23;;
5742;SDS011;2896;53.500;10.020;2024-01-30T12:58:10;15.97;;;11.13;;
5742;SDS011;2896;53.500;10.020;2024-01-30T13:00:36;16.23;;;11.57;;
5742;SDS011;2896;53.500;10.020;2024-01-30T13:03:03;12.73;;;10.20;;
5742;SDS011;2896;53.500;10.020;2024-01-30T13:05:30;18.17;;;10.90;;
5742;SDS011;2896;53.500;10.020;2024-01-30T13:07:57;16.27;;;11.33;;
5742;SDS011;2896;53.500;10.020;2024-01-30T13:10:25;17.43;;;12.17;;
5742;SDS011;2896;53.500;10.020;2024-01-30T13:12:52;22.97;;;11.90;;
5742;SDS011;2896;53.500;10.020;2024-01-30T13:15:19;14.10;;;10.63;;
5742;SDS011;2896;53.500;10.020;2024-01-30T13:17:47;15.27;;;11.10;;
5742;SDS011;2896;53.500;10.020;2024-01-30T13:20:14;20.83;;;12.67;;
5742;SDS011;2896;53.500;10.020;2024-01-30T13:22:44;25.43;;;11.57;;
5742;SDS011;2896;53.500;10.020;2024-01-30T13:25:11;18.13;;;11.60;;
5742;SDS011;2896;53.500;10.020;2024-01-30T13:27:39;15.27;;;11.77;;
5742;SDS011;2896;53.500;10.020;2024-01-30T13:30:06;13.53;;;10.27;;
5742;SDS011;2896;53.500;10.020;2024-01-30T13:32:34;15.60;;;11.30;;
5742;SDS011;2896;53.500;10.020;2024-01-30T13:35:00;20.93;;;12.10;;
5742;SDS011;2896;53.500;10.020;2024-01-30T13:37:27;26.43;;;12.10;;
5742;SDS011;2896;53.500;10.020;2024-01-30T13:39:54;16.90;;;12.17;;
5742;SDS011;2896;53.500;10.020;2024-01-30T13:42:21;17.93;;;12.43;;
5742;SDS011;2896;53.500;10.020;2024-01-30T13:44:49;20.10;;;11.10;;
5742;SDS011;2896;53.500;10.020;2024-01-30T13:47:16;18.60;;;10.67;;
5742;SDS011;2896;53.500;10.020;2024-01-30T13:49:43;15.53;;;10.93;;
5742;SDS011;2896;53.500;10.020;2024-01-30T13:52:10;18.37;;;11.60;;
5742;SDS011;2896;53.500;10.020;2024-01-30T13:54:37;20.67;;;13.10;;
5742;SDS011;2896;53.500;10.020;2024-01-30T13:57:03;19.00;;;12.17;;
5742;SDS011;2896;53.500;10.020;2024-01-30T13:59:31;17.83;;;12.13;;
5742;SDS011;2896;53.500;10.020;2024-01-30T14:02:00;26.93;;;13.83;;
5742;SDS011;2896;53.500;10.020;2024-01-30T14:04:26;20.87;;;13.27;;
5742;SDS011;2896;53.500;10.020;2024-01-30T14:06:53;25.03;;;14.60;;
5742;SDS011;2896;53.500;10.020;2024-01-30T14:09:19;19.93;;;13.37;;
5742;SDS011;2896;53.500;10.020;2024-01-30T14:11:46;18.23;;;12.63;;
5742;SDS011;2896;53.500;10.020;2024-01-30T14:14:13;33.60;;;16.40;;
5742;SDS011;2896;53.500;10.020;2024-01-30T14:16:39;34.27;;;18.80;;
5742;SDS011;2896;53.500;10.020;2024-01-30T14:19:07;61.97;;;27.87;;
5742;SDS011;2896;53.500;10.020;2024-01-30T14:21:34;42.27;;;22.57;;
5742;SDS011;2896;53.500;10.020;2024-01-30T14:24:02;18.30;;;13.70;;
5742;SDS011;2896;53.500;10.020;2024-01-30T14:26:29;26.30;;;12.77;;
5742;SDS011;2896;53.500;10.020;2024-01-30T14:28:56;18.80;;;13.57;;
5742;SDS011;2896;53.500;10.020;2024-01-30T14:31:22;23.20;;;11.57;;
5742;SDS011;2896;53.500;10.020;2024-01-30T14:33:49;17.63;;;12.07;;
5742;SDS011;2896;53.500;10.020;2024-01-30T14:36:17;20.33;;;13.10;;